Terminal Aerodrome Forecast
Issued by NWS Boston, MA

Home | Current Version | Previous Version | Text Only | Print | Product List | Glossary On
Versions: 1 2 3 4 5 6 7 8 9 10 11 12 13 14 15 16 17 18 19 20 21 22 23 24 25 26 27 28 29 30 31 32 33 34 35 36
000
FTUS41 KBOX 242320
TAFORH
TAF
KORH 242320Z 2500/2524 02008KT P6SM OVC008
     FM250400 VRB03KT P6SM BKN020
     FM250900 26005KT P6SM SCT090
     FM251700 27009KT P6SM FEW200=

USA.gov is the U.S. government's official web portal to all federal, state and local government web resources and services.